Time;durP1;ratioP1;P1;durP2;ratioP2;P2;SDS_P1;SDS_P2;PMS_P1;PMS_P2;Temp;Humidity;BMP_temperature;BMP_pressure;BME280_temperature;BME280_humidity;BME280_pressure;Samples;Min_cycle;Max_cycle;Signal;HPM_P1;HPM_P2
2024/01/22 00:01:24;;;;;;;;;;;;;;;-0.21;59.02;101019.41;137032;1276;22989;-76
2024/01/22 00:04:28;;;;;;;14.00;8.20;;;;;;;-0.24;58.83;101008.90;137042;1274;22323;-77
2024/01/22 00:07:29;;;;;;;19.80;8.00;;;;;;;-0.22;58.94;101006.55;137077;1276;23609;-76
2024/01/22 00:10:30;;;;;;;;;;;;;;;-0.23;58.91;101002.98;137082;1276;22391;-76
2024/01/22 00:13:30;;;;;;;14.30;8.30;;;;;;;-0.24;58.68;101001.42;137090;1276;22332;-76
2024/01/22 00:16:31;;;;;;;;;;;;;;;-0.23;58.91;100987.50;137073;1276;22423;-77
2024/01/22 00:19:32;;;;;;;14.60;7.80;;;;;;;-0.25;58.87;100988.30;137039;1274;22304;-76
2024/01/22 00:23:15;;;;;;;13.40;6.80;;;;;;;-0.26;58.88;100991.11;137089;1276;22248;-77
2024/01/22 00:26:19;;;;;;;16.20;7.30;;;;;;;-0.25;58.79;100988.80;137080;1276;22310;-76
2024/01/22 00:29:33;;;;;;;13.30;7.90;;;;;;;-0.24;58.66;100992.23;137106;1265;22351;-76
2024/01/22 00:37:43;;;;;;;14.60;7.60;;;;;;;-0.22;58.56;100980.31;137017;1276;22383;-76
2024/01/22 00:40:49;;;;;;;12.80;7.30;;;;;;;-0.24;58.72;100977.65;137030;1276;22446;-76
2024/01/22 00:43:52;;;;;;;10.90;6.50;;;;;;;-0.26;58.54;100978.77;137095;1276;23232;-76
2024/01/22 00:46:55;;;;;;;13.60;7.10;;;;;;;-0.25;58.60;100981.84;137068;1276;23044;-76
2024/01/22 00:49:56;;;;;;;13.80;7.60;;;;;;;-0.26;58.71;100977.77;137115;1271;22358;-76
2024/01/22 00:52:57;;;;;;;14.40;7.10;;;;;;;-0.28;58.80;100977.67;137097;1276;22857;-75
2024/01/22 00:55:58;;;;;;;;;;;;;;;-0.30;58.83;100980.91;137092;1276;23095;-75
2024/01/22 00:58:59;;;;;;;12.20;6.50;;;;;;;-0.32;58.79;100987.75;137050;1276;22265;-75
2024/01/22 01:02:00;;;;;;;15.30;6.70;;;;;;;-0.32;58.69;100981.70;137088;1276;22408;-76
2024/01/22 01:05:00;;;;;;;11.50;6.50;;;;;;;-0.33;58.62;100976.16;137083;1270;23057;-75
2024/01/22 01:08:04;;;;;;;16.40;7.10;;;;;;;-0.31;58.54;100973.61;137108;1273;22860;-75
2024/01/22 01:11:13;;;;;;;10.30;6.40;;;;;;;-0.26;58.53;100970.41;137098;1276;23051;-75
2024/01/22 01:14:27;;;;;;;12.80;6.80;;;;;;;-0.24;58.65;100967.35;137105;1276;22320;-75
2024/01/22 01:17:52;;;;;;;11.10;6.70;;;;;;;-0.23;58.46;100966.80;137109;1276;22375;-76
2024/01/22 01:20:56;;;;;;;12.10;6.50;;;;;;;-0.22;58.46;100965.02;137078;1276;22308;-76
2024/01/22 01:24:02;;;;;;;12.70;6.40;;;;;;;-0.20;58.55;100960.75;137084;1276;22282;-75
2024/01/22 01:27:03;;;;;;;10.90;6.20;;;;;;;-0.17;58.51;100966.48;137078;1276;22315;-75
2024/01/22 01:30:07;;;;;;;11.40;5.80;;;;;;;-0.11;58.47;100958.91;137092;1276;22353;-75
2024/01/22 01:33:34;;;;;;;12.00;6.70;;;;;;;-0.03;58.28;100949.59;137102;1271;22359;-75
2024/01/22 01:36:38;;;;;;;11.90;6.30;;;;;;;0.07;58.12;100947.88;136918;1275;22340;-76
2024/01/22 01:39:39;;;;;;;13.10;6.60;;;;;;;0.13;58.34;100947.38;137086;1276;22367;-75
2024/01/22 01:42:43;;;;;;;13.80;7.10;;;;;;;0.16;58.62;100942.54;137090;1276;22271;-75
2024/01/22 01:45:44;;;;;;;13.20;6.90;;;;;;;0.18;58.22;100943.13;137090;1276;22393;-76
2024/01/22 01:48:45;;;;;;;;;;;;;;;0.19;58.05;100939.61;137075;1273;22389;-75
2024/01/22 01:51:45;;;;;;;15.70;8.20;;;;;;;0.15;57.96;100930.95;137122;1276;22406;-76
2024/01/22 01:54:51;;;;;;;21.20;9.20;;;;;;;0.11;57.43;100923.17;137073;1274;22211;-76
2024/01/22 01:57:52;;;;;;;16.70;9.20;;;;;;;0.07;57.67;100910.52;137134;1276;22320;-75
2024/01/22 02:00:56;;;;;;;16.10;8.30;;;;;;;0.01;57.46;100901.05;137084;1276;22381;-75
2024/01/22 02:03:57;;;;;;;14.90;8.00;;;;;;;-0.04;57.45;100904.59;137145;1272;22361;-75
2024/01/22 02:06:58;;;;;;;16.60;8.60;;;;;;;-0.07;57.54;100903.92;137095;1276;22420;-75
2024/01/22 02:10:02;;;;;;;15.10;8.50;;;;;;;-0.13;57.71;100900.90;137121;1276;23145;-75
2024/01/22 02:13:06;;;;;;;17.00;8.80;;;;;;;-0.21;57.83;100892.95;137119;1276;22361;-75
2024/01/22 02:16:13;;;;;;;19.30;9.60;;;;;;;-0.32;57.85;100892.98;137097;1276;22236;-75
2024/01/22 02:19:19;;;;;;;18.40;9.00;;;;;;;-0.43;57.61;100884.20;137137;1276;22359;-76
2024/01/22 02:22:35;;;;;;;19.40;9.80;;;;;;;-0.54;57.69;100882.51;137094;1276;23490;-75
2024/01/22 02:25:38;;;;;;;18.20;9.80;;;;;;;-0.64;57.79;100881.91;137087;1276;22656;-75
2024/01/22 02:28:39;;;;;;;20.80;10.20;;;;;;;-0.71;57.57;100882.60;137075;1276;22243;-75
2024/01/22 02:32:13;;;;;;;;;;;;;;;;;;;;;
2024/01/22 02:35:17;;;;;;;19.40;9.60;;;;;;;-0.81;58.03;100886.28;137104;1276;22219;-75
2024/01/22 02:38:18;;;;;;;19.40;9.70;;;;;;;-0.86;58.02;100885.28;137137;1275;22365;-75
2024/01/22 02:41:19;;;;;;;22.10;9.80;;;;;;;-0.88;58.18;100876.69;137001;1276;22484;-75
2024/01/22 02:44:21;;;;;;;;;;;;;;;-0.90;58.01;100864.27;137120;1272;22394;-75
2024/01/22 02:47:28;;;;;;;18.40;9.00;;;;;;;-0.92;58.25;100851.17;136920;1276;22411;-75
2024/01/22 02:50:40;;;;;;;18.50;9.30;;;;;;;-0.93;58.24;100845.66;137116;1276;22339;-75
2024/01/22 02:53:41;;;;;;;21.10;9.80;;;;;;;-0.90;58.26;100846.39;136944;1276;22278;-75
2024/01/22 02:56:42;;;;;;;18.20;9.10;;;;;;;-0.91;58.30;100845.88;137154;1276;22432;-75
2024/01/22 02:59:43;;;;;;;;;;;;;;;-0.91;58.39;100836.67;137090;1276;22421;-76
2024/01/22 03:03:04;;;;;;;17.60;9.10;;;;;;;-0.91;58.25;100836.88;137132;1276;22364;-76
2024/01/22 03:06:06;;;;;;;16.60;8.50;;;;;;;-0.89;57.93;100829.34;137153;1276;22439;-75
2024/01/22 03:09:06;;;;;;;18.40;9.20;;;;;;;-0.86;57.99;100824.69;137138;1276;22372;-76
2024/01/22 03:12:07;;;;;;;;;;;;;;;-0.86;58.12;100825.86;137172;1276;22453;-75
2024/01/22 03:15:09;;;;;;;13.80;8.30;;;;;;;-0.89;58.33;100825.69;137133;1276;22223;-76
2024/01/22 03:18:09;;;;;;;21.20;9.10;;;;;;;-0.93;58.30;100819.92;137133;1276;22375;-75
2024/01/22 03:21:10;;;;;;;13.90;7.60;;;;;;;-0.95;58.58;100822.67;137068;1276;22290;-77
2024/01/22 03:24:13;;;;;;;16.50;7.90;;;;;;;-0.98;58.50;100816.54;137130;1276;22242;-76
2024/01/22 03:27:14;;;;;;;16.90;9.30;;;;;;;-0.99;58.36;100807.74;137130;1276;22385;-75
2024/01/22 03:30:14;;;;;;;14.60;8.00;;;;;;;-1.00;58.31;100802.59;137170;1276;22236;-76
2024/01/22 03:33:17;;;;;;;;;;;;;;;-1.01;58.32;100798.51;137124;1276;23248;-76
2024/01/22 03:36:22;;;;;;;15.10;7.80;;;;;;;-1.01;58.44;100788.55;137094;1276;23156;-75
2024/01/22 03:39:23;;;;;;;14.30;7.80;;;;;;;-1.00;58.53;100780.52;137160;1276;23115;-77
2024/01/22 03:42:32;;;;;;;14.10;7.90;;;;;;;-1.00;58.35;100772.70;137133;1276;22422;-75
2024/01/22 03:45:39;;;;;;;15.10;7.60;;;;;;;-1.00;58.77;100768.73;137123;1276;22250;-75
2024/01/22 03:49:00;;;;;;;16.60;7.60;;;;;;;-1.05;58.57;100766.39;137119;1276;22394;-75
2024/01/22 03:52:10;;;;;;;18.00;8.90;;;;;;;-1.11;58.69;100756.27;136934;1276;22364;-76
2024/01/22 03:59:11;;;;;;;14.80;7.90;;;;;;;-1.21;59.12;100741.14;137103;1276;23247;-75
2024/01/22 04:02:12;;;;;;;16.10;7.50;;;;;;;-1.27;59.08;100732.38;137134;1276;22303;-75
2024/01/22 04:05:12;;;;;;;;;;;;;;;-1.32;59.09;100731.94;137156;1276;22385;-75
2024/01/22 04:08:13;;;;;;;17.60;8.10;;;;;;;-1.35;59.31;100721.86;137120;1276;22335;-75
2024/01/22 04:11:14;;;;;;;14.50;7.90;;;;;;;-1.41;59.31;100717.61;137137;1276;22413;-75
2024/01/22 04:14:15;;;;;;;17.30;8.40;;;;;;;-1.43;59.36;100705.73;136944;1276;22366;-75
2024/01/22 04:17:16;;;;;;;13.70;8.20;;;;;;;-1.45;59.54;100697.54;136938;1276;22427;-75
2024/01/22 04:20:20;;;;;;;15.40;8.20;;;;;;;-1.47;59.65;100684.42;137124;1277;22356;-75
2024/01/22 04:23:21;;;;;;;13.20;7.70;;;;;;;-1.49;59.69;100677.77;137137;1276;22357;-75
2024/01/22 04:26:22;;;;;;;13.90;8.30;;;;;;;-1.49;59.44;100670.32;137134;1276;22510;-75
2024/01/22 04:29:22;;;;;;;12.30;7.60;;;;;;;-1.45;59.18;100661.77;137096;1276;22390;-76
2024/01/22 04:32:23;;;;;;;11.90;7.50;;;;;;;-1.36;59.40;100652.83;137056;1276;23064;-77
2024/01/22 04:35:23;;;;;;;;;;;;;;;-1.27;59.17;100655.67;137143;1270;22407;-76
2024/01/22 04:38:26;;;;;;;13.90;7.40;;;;;;;-1.21;59.15;100657.25;137125;1277;22359;-75
2024/01/22 04:41:29;;;;;;;14.60;7.70;;;;;;;-1.18;58.92;100661.14;137118;1276;23335;-76
2024/01/22 04:44:44;;;;;;;;;;;;;;;;;;;;;
2024/01/22 04:47:45;;;;;;;15.60;7.60;;;;;;;-1.20;59.16;100645.23;137109;1277;22233;-75
2024/01/22 04:55:24;;;;;;;14.70;7.90;;;;;;;-1.32;59.36;100620.86;137074;1276;22399;-75
2024/01/22 04:58:43;;;;;;;16.70;8.70;;;;;;;-1.40;59.45;100617.13;137113;1276;22447;-75
2024/01/22 05:01:58;;;;;;;17.10;10.00;;;;;;;-1.43;59.56;100614.65;137156;1276;22429;-75
2024/01/22 05:05:01;;;;;;;16.30;9.50;;;;;;;-1.46;59.89;100612.39;137155;1276;22353;-75
2024/01/22 05:08:02;;;;;;;16.90;10.20;;;;;;;-1.51;60.11;100603.26;137092;1270;22366;-77
2024/01/22 05:11:02;;;;;;;20.40;10.30;;;;;;;-1.54;60.23;100598.72;137135;1276;23124;-75
2024/01/22 05:14:17;;;;;;;;;;;;;;;;;;;;;
2024/01/22 05:18:25;;;;;;;;;;;;;;;;;;;;;
2024/01/22 05:22:45;;;;;;;14.80;9.10;;;;;;;-1.60;60.57;100576.10;136878;1276;22389;-75
2024/01/22 05:25:46;;;;;;;17.90;9.80;;;;;;;-1.62;60.72;100571.40;137086;1277;22385;-75
2024/01/22 05:29:10;;;;;;;15.00;8.90;;;;;;;-1.65;60.96;100564.03;137095;1276;22387;-75
2024/01/22 05:32:12;;;;;;;16.20;8.70;;;;;;;-1.65;60.93;100553.16;137128;1276;22417;-75
2024/01/22 05:35:13;;;;;;;13.70;8.30;;;;;;;-1.65;61.49;100547.73;137095;1276;22378;-75
2024/01/22 05:38:14;;;;;;;13.70;8.40;;;;;;;-1.63;61.15;100549.38;137132;1273;22180;-75
2024/01/22 05:45:49;;;;;;;14.70;8.60;;;;;;;-1.54;61.16;100534.72;137087;1277;22324;-75
2024/01/22 05:48:55;;;;;;;16.20;8.40;;;;;;;-1.48;61.14;100530.24;136971;1276;22403;-75
2024/01/22 05:52:06;;;;;;;16.20;7.90;;;;;;;-1.40;60.97;100533.95;137121;1276;22529;-77
2024/01/22 05:55:28;;;;;;;12.90;6.80;;;;;;;-1.32;60.79;100538.25;137100;1277;22371;-75
2024/01/22 05:58:28;;;;;;;14.70;7.70;;;;;;;-1.18;60.35;100530.75;137092;1276;22288;-75
2024/01/22 06:01:29;;;;;;;12.60;7.20;;;;;;;-1.10;60.58;100511.91;137122;1276;22366;-76
2024/01/22 06:04:30;;;;;;;12.80;7.10;;;;;;;-1.05;60.27;100509.04;137113;1276;22228;-75
2024/01/22 06:07:31;;;;;;;;;;;;;;;-1.02;60.27;100505.53;137177;1276;23077;-75
2024/01/22 06:10:31;;;;;;;10.30;6.40;;;;;;;-0.99;59.97;100500.00;137163;1272;22246;-75
2024/01/22 06:13:41;;;;;;;11.50;7.20;;;;;;;-0.95;59.69;100496.52;137121;1270;23012;-75
2024/01/22 06:16:46;;;;;;;13.60;7.10;;;;;;;-0.88;59.58;100506.17;137117;1276;22964;-76
2024/01/22 06:19:47;;;;;;;13.50;7.50;;;;;;;-0.84;59.48;100516.06;137077;1276;22370;-75
2024/01/22 06:22:48;;;;;;;13.40;7.90;;;;;;;-0.79;59.24;100510.76;137117;1276;22382;-75
2024/01/22 06:25:49;;;;;;;13.60;7.90;;;;;;;-0.77;59.60;100512.02;137094;1272;23362;-75
2024/01/22 06:28:59;;;;;;;14.90;7.90;;;;;;;-0.80;59.65;100519.45;137132;1276;23580;-75
2024/01/22 06:32:04;;;;;;;14.80;7.90;;;;;;;-0.80;59.40;100525.19;137105;1276;23064;-75
2024/01/22 06:35:26;;;;;;;14.60;7.90;;;;;;;-0.78;59.52;100537.28;137125;1276;23025;-75
2024/01/22 06:38:29;;;;;;;10.50;7.00;;;;;;;-0.76;59.47;100543.58;137075;1276;22385;-75
2024/01/22 06:41:43;;;;;;;16.50;8.70;;;;;;;-0.77;59.58;100538.92;137094;1269;23513;-75
2024/01/22 06:44:46;;;;;;;13.50;7.40;;;;;;;-0.78;59.57;100542.12;137103;1276;22933;-75
2024/01/22 06:47:47;;;;;;;12.80;8.30;;;;;;;-0.79;59.91;100542.52;137123;1276;22889;-75
2024/01/22 06:50:48;;;;;;;14.10;9.00;;;;;;;-0.82;59.68;100536.94;137086;1276;23142;-75
2024/01/22 06:53:50;;;;;;;11.60;7.60;;;;;;;-0.81;59.60;100534.81;137114;1274;22387;-75
2024/01/22 06:56:50;;;;;;;13.00;7.20;;;;;;;-0.79;59.77;100547.38;137044;1276;23041;-77
2024/01/22 06:59:55;;;;;;;13.80;8.40;;;;;;;-0.74;59.64;100535.82;137120;1276;22238;-76
2024/01/22 07:02:58;;;;;;;11.50;7.20;;;;;;;-0.67;59.53;100524.33;137117;1276;23046;-79
2024/01/22 07:05:59;;;;;;;11.70;7.20;;;;;;;-0.64;59.56;100524.48;137102;1276;22255;-79
2024/01/22 07:09:00;;;;;;;15.10;8.40;;;;;;;-0.60;59.36;100521.83;137070;1276;23025;-77
2024/01/22 07:12:00;;;;;;;;;;;;;;;-0.51;59.51;100522.23;137136;1276;23110;-77
2024/01/22 07:15:01;;;;;;;12.10;7.60;;;;;;;-0.45;59.98;100513.52;137067;1276;23188;-78
2024/01/22 07:18:02;;;;;;;;;;;;;;;-0.41;59.23;100505.31;137138;1276;23019;-77
2024/01/22 07:21:10;;;;;;;15.40;8.30;;;;;;;-0.34;59.08;100499.50;137161;1276;22308;-77
2024/01/22 07:24:13;;;;;;;12.90;8.20;;;;;;;-0.22;59.23;100488.91;137109;1276;23136;-78
2024/01/22 07:27:14;;;;;;;14.00;7.90;;;;;;;-0.09;58.78;100483.13;136884;1276;23131;-77
2024/01/22 07:30:21;;;;;;;15.80;8.60;;;;;;;0.05;58.63;100477.45;136871;1276;22859;-78
2024/01/22 07:33:57;;;;;;;17.30;8.10;;;;;;;0.18;58.49;100479.59;137098;1276;22365;-77
2024/01/22 07:37:01;;;;;;;19.20;8.40;;;;;;;0.27;57.52;100477.48;137076;1276;22993;-77
2024/01/22 07:40:04;;;;;;;11.80;8.00;;;;;;;0.35;57.58;100471.45;137100;1276;23231;-77
2024/01/22 07:43:07;;;;;;;15.90;7.70;;;;;;;0.43;57.62;100470.11;137139;1276;22386;-77
2024/01/22 07:46:13;;;;;;;;;;;;;;;0.49;57.50;100466.42;137085;1276;22407;-77
2024/01/22 07:49:41;;;;;;;11.10;6.80;;;;;;;0.54;57.50;100453.92;137123;1276;22379;-77
2024/01/22 07:52:55;;;;;;;13.20;7.20;;;;;;;0.61;57.42;100451.95;137169;1276;22301;-77
2024/01/22 07:56:26;;;;;;;11.40;7.20;;;;;;;0.69;56.98;100448.84;137112;1273;23632;-77
2024/01/22 07:59:32;;;;;;;15.90;7.70;;;;;;;0.76;56.78;100432.75;137079;1276;22395;-78
2024/01/22 08:08:06;;;;;;;;;;;;;;;;;;;;;
2024/01/22 08:11:38;;;;;;;14.70;7.30;;;;;;;0.98;56.22;100431.70;136944;1276;23198;-78
2024/01/22 08:15:25;;;;;;;;;;;;;;;;;;;;;
2024/01/22 08:22:58;;;;;;;14.00;8.00;;;;;;;1.25;55.76;100406.02;136917;1276;23107;-78
2024/01/22 08:27:11;;;;;;;;;;;;;;;;;;;;;
2024/01/22 08:31:37;;;;;;;;;;;;;;;;;;;;;
2024/01/22 08:34:47;;;;;;;13.40;7.40;;;;;;;1.50;55.11;100380.39;136824;1276;22359;-76
2024/01/22 08:37:54;;;;;;;;;;;;;;;1.55;54.85;100376.52;137122;1277;22387;-76
2024/01/22 08:40:57;;;;;;;13.70;7.80;;;;;;;1.61;54.51;100367.95;137112;1276;22359;-76
2024/01/22 08:44:00;;;;;;;14.40;7.80;;;;;;;1.67;54.24;100365.11;137168;1276;22364;-73
2024/01/22 08:47:01;;;;;;;12.20;7.70;;;;;;;1.72;54.12;100362.48;137144;1276;22335;-78
2024/01/22 08:50:04;;;;;;;14.10;8.00;;;;;;;1.79;54.06;100355.74;137172;1276;23625;-75
2024/01/22 08:53:05;;;;;;;14.60;8.40;;;;;;;1.84;53.88;100351.41;137106;1276;23184;-76
2024/01/22 08:56:05;;;;;;;;;;;;;;;1.88;54.01;100340.84;136986;1275;22401;-77
2024/01/22 08:59:06;;;;;;;18.70;8.90;;;;;;;1.91;53.91;100324.20;137082;1265;22384;-78
2024/01/22 09:02:09;;;;;;;;;;;;;;;1.93;53.70;100316.75;137120;1276;22408;-76
2024/01/22 09:05:46;;;;;;;;;;;;;;;;;;;;;
2024/01/22 09:21:33;;;;;;;23.00;6.70;;;;;;;2.46;52.59;100278.63;136981;1276;22405;-76
2024/01/22 09:24:33;;;;;;;10.80;6.10;;;;;;;2.63;52.24;100295.35;137105;1276;22363;-78
2024/01/22 09:27:34;;;;;;;12.00;6.50;;;;;;;2.84;51.59;100301.16;137148;1276;23087;-77
2024/01/22 09:30:35;;;;;;;;;;;;;;;3.04;51.27;100289.41;137113;1276;22427;-78
2024/01/22 09:33:53;;;;;;;12.00;6.60;;;;;;;3.17;50.68;100295.28;136870;1276;358433;-78
2024/01/22 09:38:02;;;;;;;12.30;7.10;;;;;;;3.28;50.50;100291.77;137168;1276;22429;-80
2024/01/22 09:46:02;;;;;;;;;;;;;;;;;;;;;
2024/01/22 09:49:24;;;;;;;17.40;8.20;;;;;;;3.23;50.40;100295.11;136863;1276;22442;-79
2024/01/22 09:53:43;;;;;;;14.20;7.10;;;;;;;3.23;50.43;100294.61;137140;1276;22325;-80
2024/01/22 09:57:20;;;;;;;;;;;;;;;;;;;;;
2024/01/22 10:00:45;;;;;;;15.70;7.30;;;;;;;3.18;50.69;100287.36;136963;1277;22397;-78
2024/01/22 10:03:47;;;;;;;17.90;8.10;;;;;;;3.14;50.92;100287.80;137120;1277;22380;-79
2024/01/22 10:06:52;;;;;;;15.20;7.80;;;;;;;3.10;50.89;100265.36;137119;1276;22389;-78
2024/01/22 10:09:55;;;;;;;12.50;7.30;;;;;;;3.04;50.51;100223.16;137140;1277;22371;-78
2024/01/22 10:13:02;;;;;;;15.60;8.00;;;;;;;2.97;50.68;100197.29;137102;1273;22226;-77
2024/01/22 10:16:09;;;;;;;12.90;8.20;;;;;;;2.96;51.13;100243.88;137117;1276;22326;-79
2024/01/22 10:19:12;;;;;;;16.10;7.60;;;;;;;3.01;50.90;100229.14;137083;1276;22402;-78
2024/01/22 10:22:13;;;;;;;15.70;7.20;;;;;;;3.10;50.64;100201.53;137133;1276;22375;-79
2024/01/22 10:25:17;;;;;;;15.00;8.30;;;;;;;3.17;50.50;100203.16;137098;1276;22385;-78
2024/01/22 10:28:19;;;;;;;20.30;8.90;;;;;;;3.26;50.35;100216.23;137117;1276;22368;-79
2024/01/22 10:31:41;;;;;;;13.20;8.20;;;;;;;3.43;50.40;100213.56;137131;1276;22284;-76
2024/01/22 10:35:28;;;;;;;;;;;;;;;;;;;;;
2024/01/22 10:43:28;;;;;;;;;;;;;;;;;;;;;
2024/01/22 10:47:21;;;;;;;13.90;7.40;;;;;;;4.02;50.19;100201.20;137114;1276;23165;-77
2024/01/22 10:50:29;;;;;;;19.80;8.60;;;;;;;4.05;49.78;100205.68;137025;1276;22455;-78
2024/01/22 10:53:31;;;;;;;17.70;9.00;;;;;;;4.14;50.40;100259.96;137110;1276;22343;-78
2024/01/22 10:56:34;;;;;;;11.40;6.60;;;;;;;4.24;50.49;100271.91;137109;1276;22388;-79
2024/01/22 10:59:39;;;;;;;14.10;7.30;;;;;;;4.35;49.90;100242.14;137115;1276;22320;-79
2024/01/22 11:02:45;;;;;;;15.30;7.20;;;;;;;4.48;49.44;100216.38;137157;1276;22352;-79
2024/01/22 11:05:48;;;;;;;11.50;6.20;;;;;;;4.63;48.28;100203.25;137121;1276;22357;-79
2024/01/22 11:08:51;;;;;;;12.10;6.60;;;;;;;4.74;48.30;100197.25;137108;1276;22374;-79
2024/01/22 11:11:53;;;;;;;8.70;5.80;;;;;;;4.81;47.24;100183.21;137111;1276;22220;-79
2024/01/22 11:14:54;;;;;;;10.20;6.10;;;;;;;4.85;46.83;100159.36;137172;1264;22377;-79
2024/01/22 11:17:55;;;;;;;10.40;6.20;;;;;;;4.91;45.05;100131.67;137090;1276;22379;-79
2024/01/22 11:21:14;;;;;;;;;;;;;;;4.95;44.79;100120.00;137119;1273;22411;-81
2024/01/22 11:24:20;;;;;;;13.20;7.00;;;;;;;5.01;45.28;100140.02;137055;1276;22457;-80
2024/01/22 11:27:39;;;;;;;12.90;5.90;;;;;;;5.06;45.92;100167.39;137137;1276;22358;-80
2024/01/22 11:30:41;;;;;;;13.70;7.40;;;;;;;5.12;45.53;100170.26;136838;1276;22387;-83
2024/01/22 11:33:59;;;;;;;17.00;8.70;;;;;;;5.18;44.88;100169.04;137186;1276;22431;-83
2024/01/22 11:37:00;;;;;;;11.00;5.90;;;;;;;5.23;45.28;100173.38;137135;1276;22358;-81
2024/01/22 11:40:01;;;;;;;;;;;;;;;5.25;45.04;100175.98;137103;1276;23078;-79
2024/01/22 11:43:02;;;;;;;8.30;5.30;;;;;;;5.28;45.51;100170.94;137122;1276;22398;-78
2024/01/22 11:46:16;;;;;;;15.10;5.80;;;;;;;5.31;45.34;100173.52;137138;1276;22412;-79
2024/01/22 11:49:36;;;;;;;;;;;;;;;;;;;;;
2024/01/22 11:53:56;;;;;;;9.20;5.60;;;;;;;5.36;44.52;100152.19;137061;1276;22366;-78
2024/01/22 11:56:42;;;;;;;7.90;5.10;;;;;;;5.36;44.54;100151.34;137031;1276;22255;-79
2024/01/22 12:00:50;;;;;;;9.30;5.50;;;;;;;5.37;44.37;100149.27;137055;1276;22368;-79
2024/01/22 12:07:54;;;;;;;7.80;5.40;;;;;;;5.43;44.63;100128.67;136990;1276;22407;-77
2024/01/22 12:11:09;;;;;;;;;;;;;;;5.41;44.08;100122.83;137094;1276;22404;-78
2024/01/22 12:14:13;;;;;;;8.40;5.80;;;;;;;5.40;44.07;100119.73;137109;1276;22298;-78
2024/01/22 12:17:24;;;;;;;11.80;6.60;;;;;;;5.38;43.01;100112.77;136976;1276;23098;-78
2024/01/22 12:20:38;;;;;;;;;;;;;;;;;;;;;
2024/01/22 12:24:06;;;;;;;10.90;6.30;;;;;;;5.31;44.01;100124.73;136894;1276;22464;-78
2024/01/22 12:27:10;;;;;;;11.20;5.50;;;;;;;5.26;43.33;100107.81;137056;1276;22343;-77
2024/01/22 12:30:14;;;;;;;15.20;6.80;;;;;;;5.23;42.71;100096.34;137086;1269;23156;-82
2024/01/22 12:33:22;;;;;;;19.10;11.60;;;;;;;5.18;43.27;100103.13;137100;1276;22439;-84
2024/01/22 12:36:28;;;;;;;20.30;13.10;;;;;;;5.12;43.99;100092.06;136930;1276;22981;-84
2024/01/22 12:39:32;;;;;;;11.80;6.30;;;;;;;5.02;44.16;100077.64;137100;1276;22417;-82
2024/01/22 12:42:33;;;;;;;12.50;6.70;;;;;;;4.87;44.32;100055.55;137109;1276;22396;-80
2024/01/22 12:45:38;;;;;;;11.80;6.10;;;;;;;4.71;44.88;100050.50;137138;1276;22430;-82
2024/01/22 12:48:49;;;;;;;14.70;8.20;;;;;;;4.53;46.21;100045.91;137094;1276;22383;-81
2024/01/22 12:51:53;;;;;;;20.60;8.10;;;;;;;4.37;47.22;100023.80;136898;1276;22229;-82
2024/01/22 12:54:56;;;;;;;12.40;7.00;;;;;;;4.21;47.94;100006.70;137086;1276;22344;-80
2024/01/22 12:58:13;;;;;;;10.30;6.50;;;;;;;4.11;48.11;99984.33;136950;1276;23019;-81
2024/01/22 13:01:36;;;;;;;;;;;;;;;;;;;;;
2024/01/22 13:05:07;;;;;;;10.70;5.70;;;;;;;3.98;49.43;99967.50;137075;1276;22438;-79
2024/01/22 13:08:10;;;;;;;11.50;5.90;;;;;;;3.94;49.95;99982.17;136902;1276;23061;-80
2024/01/22 13:11:11;;;;;;;10.00;6.50;;;;;;;3.92;50.46;99981.80;137088;1276;22213;-82
2024/01/22 13:14:11;;;;;;;;;;;;;;;3.90;50.27;99957.35;137081;1276;23241;-85
2024/01/22 13:17:12;;;;;;;11.70;6.60;;;;;;;3.86;50.27;99951.02;136923;1273;22372;-86
2024/01/22 13:20:13;;;;;;;10.60;6.40;;;;;;;3.86;49.97;99959.04;136806;1276;22399;-82
2024/01/22 13:23:17;;;;;;;13.40;6.70;;;;;;;3.87;50.12;99981.21;136896;1276;22357;-85
2024/01/22 13:26:19;;;;;;;10.30;6.40;;;;;;;3.88;49.78;99987.77;137061;1276;23457;-83
2024/01/22 13:29:23;;;;;;;11.10;6.20;;;;;;;3.92;49.75;99991.95;137061;1276;22421;-80
2024/01/22 13:32:24;;;;;;;11.20;6.20;;;;;;;3.96;49.69;99990.75;136896;1276;23167;-82
2024/01/22 13:35:24;;;;;;;12.60;5.90;;;;;;;3.98;49.48;99987.44;137077;1276;22232;-83
2024/01/22 13:38:28;;;;;;;;;;;;;;;3.98;49.49;99985.33;137062;1276;23243;-79
2024/01/22 13:41:32;;;;;;;12.90;6.70;;;;;;;3.98;49.70;99989.05;137108;1276;22725;-80
2024/01/22 13:44:33;;;;;;;;;;;;;;;3.95;49.66;99985.04;136979;1276;23373;-81
2024/01/22 13:47:34;;;;;;;10.90;6.80;;;;;;;3.93;50.10;99986.14;137113;1276;23178;-80
2024/01/22 13:50:35;;;;;;;10.60;6.80;;;;;;;3.86;50.39;99994.59;137091;1276;23219;-77
2024/01/22 13:53:35;;;;;;;9.50;6.30;;;;;;;3.81;50.48;99985.33;137108;1276;23381;-81
2024/01/22 13:56:38;;;;;;;10.80;6.30;;;;;;;3.79;50.40;99988.11;137072;1276;22368;-80
2024/01/22 13:59:42;;;;;;;10.40;6.70;;;;;;;3.76;50.68;99984.05;137102;1276;22354;-80
2024/01/22 14:02:46;;;;;;;10.50;6.60;;;;;;;3.71;50.77;99984.98;136992;1276;23173;-80
2024/01/22 14:05:46;;;;;;;;;;;;;;;3.67;50.83;99980.55;137105;1276;22384;-80
2024/01/22 14:08:47;;;;;;;10.50;6.00;;;;;;;3.60;51.01;99975.72;137069;1276;23161;-81
2024/01/22 14:11:47;;;;;;;;;;;;;;;3.54;51.29;99975.28;137112;1276;23057;-78
2024/01/22 14:14:50;;;;;;;11.90;6.70;;;;;;;3.50;51.14;99975.11;137062;1276;23142;-80
2024/01/22 14:17:59;;;;;;;12.20;7.50;;;;;;;3.45;51.39;99968.52;136973;1276;22293;-80
2024/01/22 14:21:02;;;;;;;16.10;8.30;;;;;;;3.43;51.28;99966.57;137097;1276;22232;-78
2024/01/22 14:24:04;;;;;;;14.40;7.40;;;;;;;3.45;50.86;99969.18;137101;1276;23168;-82
2024/01/22 14:27:05;;;;;;;15.30;8.30;;;;;;;3.50;50.98;99957.43;136962;1276;23148;-84
2024/01/22 14:30:08;;;;;;;16.50;8.90;;;;;;;3.53;50.60;99951.98;136978;1276;22386;-83
2024/01/22 14:33:08;;;;;;;13.40;8.20;;;;;;;3.55;50.97;99954.96;137084;1276;22267;-80
2024/01/22 14:36:09;;;;;;;12.40;7.90;;;;;;;3.56;50.85;99946.80;137051;1276;23245;-78
2024/01/22 14:39:11;;;;;;;13.30;8.00;;;;;;;3.59;51.21;99950.02;137105;1276;22406;-84
2024/01/22 14:42:11;;;;;;;11.90;7.20;;;;;;;3.61;51.04;99946.10;137131;1276;22416;-80
2024/01/22 14:45:12;;;;;;;13.80;7.90;;;;;;;3.63;51.01;99928.95;137087;1276;22837;-84
2024/01/22 14:48:16;;;;;;;14.50;7.70;;;;;;;3.67;50.73;99921.42;137064;1276;22340;-82
2024/01/22 14:51:17;;;;;;;11.20;6.70;;;;;;;3.70;51.08;99904.89;136978;1276;22398;-79
2024/01/22 14:54:18;;;;;;;12.00;7.00;;;;;;;3.70;50.93;99891.83;137117;1276;22385;-86
2024/01/22 14:57:21;;;;;;;11.30;6.50;;;;;;;3.69;51.11;99895.02;137089;1276;22374;-82
2024/01/22 15:00:24;;;;;;;12.30;6.80;;;;;;;3.67;51.41;99889.44;137137;1276;23104;-83
2024/01/22 15:03:26;;;;;;;9.70;6.30;;;;;;;3.66;51.35;99890.02;137157;1274;22281;-84
2024/01/22 15:06:26;;;;;;;;;;;;;;;3.64;51.29;99896.15;137127;1276;22376;-85
2024/01/22 15:09:27;;;;;;;18.60;8.00;;;;;;;3.61;51.26;99899.06;137134;1276;22386;-83
2024/01/22 15:12:27;;;;;;;15.60;7.40;;;;;;;3.57;51.36;99899.84;137119;1270;22330;-84
2024/01/22 15:15:29;;;;;;;14.00;8.30;;;;;;;3.54;51.51;99899.61;137068;1276;22265;-79
2024/01/22 15:18:30;;;;;;;13.10;7.70;;;;;;;3.52;51.76;99900.31;137116;1276;22396;-79
2024/01/22 15:21:31;;;;;;;12.90;7.80;;;;;;;3.52;52.08;99917.25;137136;1276;22352;-77
2024/01/22 15:24:32;;;;;;;13.80;8.10;;;;;;;3.49;52.30;99913.27;137075;1276;22372;-78
2024/01/22 15:27:36;;;;;;;12.90;7.60;;;;;;;3.45;52.48;99902.61;137109;1276;22341;-78
2024/01/22 15:30:43;;;;;;;18.60;8.30;;;;;;;3.41;52.79;99917.10;137085;1276;22969;-79
2024/01/22 15:33:46;;;;;;;16.40;8.30;;;;;;;3.39;53.05;99915.19;137023;1274;22357;-79
2024/01/22 15:36:47;;;;;;;14.20;8.00;;;;;;;3.41;53.49;99908.04;137136;1276;22388;-76
2024/01/22 15:40:22;;;;;;;13.90;7.90;;;;;;;3.41;53.35;99912.39;137056;1276;22215;-80
2024/01/22 15:43:26;;;;;;;12.10;7.50;;;;;;;3.39;53.60;99913.27;137068;1276;22276;-79
2024/01/22 15:46:26;;;;;;;;;;;;;;;3.38;53.68;99909.49;137069;1276;22489;-78
2024/01/22 15:49:30;;;;;;;14.30;8.50;;;;;;;3.34;54.04;99900.20;137077;1273;22234;-79
2024/01/22 15:52:33;;;;;;;14.60;8.40;;;;;;;3.31;54.26;99899.18;136953;1276;22358;-76